aviador You're here:

LZIB Decoded Metar

BRATISLAVA in SLOVAKIA
Report Time2018-01-22 01:30:00
UTC Time2018-01-22 02:02:22
Flight Rules vfr VFR
Wind310° at 09 kt
W.Decomp.*RWY 31: 9.0 kt HW 0.5 kt LCW
RWY 22: 0.5 kt HW 9.0 kt RCW
W.Rank310° ranks 1
Current wind is below 310° avg. (9.4)
Visibility9999 m
Phenomena:N/A
Clouds:N/A
Expected CloudBase > 1,600 ft AGL from Temp-Dew spread
CeilingNone
Temp-1°C (ISA -15)
Dew Point-5°C (75% RH)
AAT-6.8°C
QNH1017 hPa
Density Alt-1,486 ft
Elevation440 ft
Report Wrong Elevation
Raw Report
LZIB 220130Z 31009KT CAVOK M01/M05 Q1017 R13/220195=

Extra information for LZIB:More info

Metar Taf Metar & Taf Last 4 Metars F.Rules Stats Wind Profile Meteogram Temp Stats Airport Information Weather charts Add Link Nearby VenuesMetar ALERT Operation Metar Decoded Social comments